sensor_id;sensor_type;location;lat;lon;timestamp;temperature;humidity
71117;SHT31;58775;46.992;9.518;2023-06-14T00:00:37;15.40;64.47
71117;SHT31;58775;46.992;9.518;2023-06-14T00:02:41;15.30;65.56
71117;SHT31;58775;46.992;9.518;2023-06-14T00:04:43;15.25;65.66
71117;SHT31;58775;46.992;9.518;2023-06-14T00:06:44;15.16;66.08
71117;SHT31;58775;46.992;9.518;2023-06-14T00:08:46;15.02;68.03
71117;SHT31;58775;46.992;9.518;2023-06-14T00:10:47;14.98;66.82
71117;SHT31;58775;46.992;9.518;2023-06-14T00:12:49;15.06;66.96
71117;SHT31;58775;46.992;9.518;2023-06-14T00:14:50;15.06;66.99
71117;SHT31;58775;46.992;9.518;2023-06-14T00:16:52;14.88;67.27
71117;SHT31;58775;46.992;9.518;2023-06-14T00:18:54;14.72;67.48
71117;SHT31;58775;46.992;9.518;2023-06-14T00:20:56;14.74;67.66
71117;SHT31;58775;46.992;9.518;2023-06-14T00:22:57;14.72;67.31
71117;SHT31;58775;46.992;9.518;2023-06-14T00:24:59;14.78;67.12
71117;SHT31;58775;46.992;9.518;2023-06-14T00:27:01;14.63;68.52
71117;SHT31;58775;46.992;9.518;2023-06-14T00:29:04;14.55;68.77
71117;SHT31;58775;46.992;9.518;2023-06-14T00:31:05;14.65;68.26
71117;SHT31;58775;46.992;9.518;2023-06-14T00:33:07;14.81;66.39
71117;SHT31;58775;46.992;9.518;2023-06-14T00:35:09;14.63;66.90
71117;SHT31;58775;46.992;9.518;2023-06-14T00:37:11;14.37;67.79
71117;SHT31;58775;46.992;9.518;2023-06-14T00:39:12;14.34;67.95
71117;SHT31;58775;46.992;9.518;2023-06-14T00:41:14;14.35;67.50
71117;SHT31;58775;46.992;9.518;2023-06-14T00:43:17;14.27;67.58
71117;SHT31;58775;46.992;9.518;2023-06-14T00:45:19;14.21;68.27
71117;SHT31;58775;46.992;9.518;2023-06-14T00:47:22;14.23;69.34
71117;SHT31;58775;46.992;9.518;2023-06-14T00:49:24;14.34;68.70
71117;SHT31;58775;46.992;9.518;2023-06-14T00:51:25;14.38;67.84
71117;SHT31;58775;46.992;9.518;2023-06-14T00:53:29;14.44;67.59
71117;SHT31;58775;46.992;9.518;2023-06-14T00:55:32;14.54;67.54
71117;SHT31;58775;46.992;9.518;2023-06-14T00:57:34;14.58;67.53
71117;SHT31;58775;46.992;9.518;2023-06-14T00:59:46;14.47;67.32
71117;SHT31;58775;46.992;9.518;2023-06-14T01:01:48;14.48;66.61
71117;SHT31;58775;46.992;9.518;2023-06-14T01:03:49;14.42;66.72
71117;SHT31;58775;46.992;9.518;2023-06-14T01:05:59;14.09;68.90
71117;SHT31;58775;46.992;9.518;2023-06-14T01:10:53;13.79;68.90
71117;SHT31;58775;46.992;9.518;2023-06-14T01:13:19;13.73;69.57
71117;SHT31;58775;46.992;9.518;2023-06-14T01:15:21;13.87;69.65
71117;SHT31;58775;46.992;9.518;2023-06-14T01:17:25;13.84;69.56
71117;SHT31;58775;46.992;9.518;2023-06-14T01:19:28;13.87;68.94
71117;SHT31;58775;46.992;9.518;2023-06-14T01:21:29;14.09;67.76
71117;SHT31;58775;46.992;9.518;2023-06-14T01:23:31;13.96;68.94
71117;SHT31;58775;46.992;9.518;2023-06-14T01:25:33;13.80;69.90
71117;SHT31;58775;46.992;9.518;2023-06-14T01:27:37;13.80;68.98
71117;SHT31;58775;46.992;9.518;2023-06-14T01:29:39;13.93;68.94
71117;SHT31;58775;46.992;9.518;2023-06-14T01:31:50;13.73;70.42
71117;SHT31;58775;46.992;9.518;2023-06-14T01:33:52;13.61;70.84
71117;SHT31;58775;46.992;9.518;2023-06-14T01:35:55;13.72;70.02
71117;SHT31;58775;46.992;9.518;2023-06-14T01:37:58;13.69;70.82
71117;SHT31;58775;46.992;9.518;2023-06-14T01:40:01;13.63;70.97
71117;SHT31;58775;46.992;9.518;2023-06-14T01:42:06;13.66;70.84
71117;SHT31;58775;46.992;9.518;2023-06-14T01:44:09;13.59;71.24
71117;SHT31;58775;46.992;9.518;2023-06-14T01:46:11;13.55;70.59
71117;SHT31;58775;46.992;9.518;2023-06-14T01:48:14;13.66;70.26
71117;SHT31;58775;46.992;9.518;2023-06-14T01:50:18;13.42;71.86
71117;SHT31;58775;46.992;9.518;2023-06-14T01:52:20;13.43;71.76
71117;SHT31;58775;46.992;9.518;2023-06-14T01:54:23;13.34;72.01
71117;SHT31;58775;46.992;9.518;2023-06-14T01:56:26;13.35;71.11
71117;SHT31;58775;46.992;9.518;2023-06-14T01:58:29;13.38;71.26
71117;SHT31;58775;46.992;9.518;2023-06-14T02:00:32;13.43;71.52
71117;SHT31;58775;46.992;9.518;2023-06-14T02:02:33;13.39;71.81
71117;SHT31;58775;46.992;9.518;2023-06-14T02:04:35;13.38;71.59
71117;SHT31;58775;46.992;9.518;2023-06-14T02:06:37;13.21;72.37
71117;SHT31;58775;46.992;9.518;2023-06-14T02:08:39;13.14;72.73
71117;SHT31;58775;46.992;9.518;2023-06-14T02:10:41;13.15;72.81
71117;SHT31;58775;46.992;9.518;2023-06-14T02:12:42;13.11;73.36
71117;SHT31;58775;46.992;9.518;2023-06-14T02:14:44;13.18;72.55
71117;SHT31;58775;46.992;9.518;2023-06-14T02:16:46;13.12;72.91
71117;SHT31;58775;46.992;9.518;2023-06-14T02:18:50;13.18;73.38
71117;SHT31;58775;46.992;9.518;2023-06-14T02:20:52;13.14;72.98
71117;SHT31;58775;46.992;9.518;2023-06-14T02:22:54;13.24;72.40
71117;SHT31;58775;46.992;9.518;2023-06-14T02:24:56;13.36;71.87
71117;SHT31;58775;46.992;9.518;2023-06-14T02:26:58;13.14;72.98
71117;SHT31;58775;46.992;9.518;2023-06-14T02:28:59;13.22;72.44
71117;SHT31;58775;46.992;9.518;2023-06-14T02:31:02;13.00;73.54
71117;SHT31;58775;46.992;9.518;2023-06-14T02:33:04;13.12;72.78
71117;SHT31;58775;46.992;9.518;2023-06-14T02:35:07;13.01;73.64
71117;SHT31;58775;46.992;9.518;2023-06-14T02:37:10;12.95;74.19
71117;SHT31;58775;46.992;9.518;2023-06-14T02:39:12;12.95;74.04
71117;SHT31;58775;46.992;9.518;2023-06-14T02:41:13;12.95;73.61
71117;SHT31;58775;46.992;9.518;2023-06-14T02:43:14;12.68;74.64
71117;SHT31;58775;46.992;9.518;2023-06-14T02:45:18;12.77;74.55
71117;SHT31;58775;46.992;9.518;2023-06-14T02:47:20;12.88;73.57
71117;SHT31;58775;46.992;9.518;2023-06-14T02:49:22;12.88;73.94
71117;SHT31;58775;46.992;9.518;2023-06-14T02:51:24;13.02;73.22
71117;SHT31;58775;46.992;9.518;2023-06-14T02:53:26;12.91;73.78
71117;SHT31;58775;46.992;9.518;2023-06-14T02:55:28;12.76;74.85
71117;SHT31;58775;46.992;9.518;2023-06-14T02:57:30;12.70;74.86
71117;SHT31;58775;46.992;9.518;2023-06-14T02:59:31;12.83;73.80
71117;SHT31;58775;46.992;9.518;2023-06-14T03:01:33;12.57;75.43
71117;SHT31;58775;46.992;9.518;2023-06-14T03:03:38;12.46;75.95
71117;SHT31;58775;46.992;9.518;2023-06-14T03:05:45;12.32;76.63
71117;SHT31;58775;46.992;9.518;2023-06-14T03:07:49;12.44;75.82
71117;SHT31;58775;46.992;9.518;2023-06-14T03:09:52;12.50;75.60
71117;SHT31;58775;46.992;9.518;2023-06-14T03:11:55;12.41;76.55
71117;SHT31;58775;46.992;9.518;2023-06-14T03:13:57;12.46;76.01
71117;SHT31;58775;46.992;9.518;2023-06-14T03:16:00;12.41;75.35
71117;SHT31;58775;46.992;9.518;2023-06-14T03:18:08;12.44;75.59
71117;SHT31;58775;46.992;9.518;2023-06-14T03:20:18;12.41;76.35
71117;SHT31;58775;46.992;9.518;2023-06-14T03:22:21;12.46;76.39
71117;SHT31;58775;46.992;9.518;2023-06-14T03:24:26;12.41;76.79
71117;SHT31;58775;46.992;9.518;2023-06-14T03:26:42;12.40;76.78
71117;SHT31;58775;46.992;9.518;2023-06-14T03:28:45;12.36;77.84
71117;SHT31;58775;46.992;9.518;2023-06-14T03:30:47;12.34;78.16
71117;SHT31;58775;46.992;9.518;2023-06-14T03:32:49;12.32;77.69
71117;SHT31;58775;46.992;9.518;2023-06-14T03:34:53;12.44;76.59
71117;SHT31;58775;46.992;9.518;2023-06-14T03:36:58;12.40;76.19
71117;SHT31;58775;46.992;9.518;2023-06-14T03:39:00;12.44;75.48
71117;SHT31;58775;46.992;9.518;2023-06-14T03:41:02;12.40;75.78
71117;SHT31;58775;46.992;9.518;2023-06-14T03:43:04;12.26;77.24
71117;SHT31;58775;46.992;9.518;2023-06-14T03:45:06;12.37;76.66
71117;SHT31;58775;46.992;9.518;2023-06-14T03:47:08;12.32;76.71
71117;SHT31;58775;46.992;9.518;2023-06-14T03:49:11;12.36;76.46
71117;SHT31;58775;46.992;9.518;2023-06-14T03:51:13;12.32;76.89
71117;SHT31;58775;46.992;9.518;2023-06-14T03:53:15;12.34;77.52
71117;SHT31;58775;46.992;9.518;2023-06-14T03:55:22;12.23;77.80
71117;SHT31;58775;46.992;9.518;2023-06-14T03:57:26;12.36;77.50
71117;SHT31;58775;46.992;9.518;2023-06-14T03:59:30;12.33;77.64
71117;SHT31;58775;46.992;9.518;2023-06-14T04:01:31;12.32;78.32
71117;SHT31;58775;46.992;9.518;2023-06-14T04:03:35;12.41;77.99
71117;SHT31;58775;46.992;9.518;2023-06-14T04:05:38;12.34;78.16
71117;SHT31;58775;46.992;9.518;2023-06-14T04:07:43;12.43;77.40
71117;SHT31;58775;46.992;9.518;2023-06-14T04:09:49;12.33;77.70
71117;SHT31;58775;46.992;9.518;2023-06-14T04:11:54;12.25;79.00
71117;SHT31;58775;46.992;9.518;2023-06-14T04:13:58;12.40;78.66
71117;SHT31;58775;46.992;9.518;2023-06-14T04:16:01;12.50;78.13
71117;SHT31;58775;46.992;9.518;2023-06-14T04:18:08;12.36;77.85
71117;SHT31;58775;46.992;9.518;2023-06-14T04:20:09;12.28;78.63
71117;SHT31;58775;46.992;9.518;2023-06-14T04:22:12;12.28;78.49
71117;SHT31;58775;46.992;9.518;2023-06-14T04:24:14;12.29;78.64
71117;SHT31;58775;46.992;9.518;2023-06-14T04:26:18;12.37;78.56
71117;SHT31;58775;46.992;9.518;2023-06-14T04:28:22;12.41;77.79
71117;SHT31;58775;46.992;9.518;2023-06-14T04:30:30;12.43;77.69
71117;SHT31;58775;46.992;9.518;2023-06-14T04:32:33;12.46;78.19
71117;SHT31;58775;46.992;9.518;2023-06-14T04:34:41;12.47;78.14
71117;SHT31;58775;46.992;9.518;2023-06-14T04:36:43;12.50;78.62
71117;SHT31;58775;46.992;9.518;2023-06-14T04:38:51;12.43;78.80
71117;SHT31;58775;46.992;9.518;2023-06-14T04:40:57;12.51;78.67
71117;SHT31;58775;46.992;9.518;2023-06-14T04:43:02;12.46;78.47
71117;SHT31;58775;46.992;9.518;2023-06-14T04:45:08;12.43;79.55
71117;SHT31;58775;46.992;9.518;2023-06-14T04:47:12;12.54;79.20
71117;SHT31;58775;46.992;9.518;2023-06-14T04:49:15;12.64;78.88
71117;SHT31;58775;46.992;9.518;2023-06-14T04:51:17;12.68;79.27
71117;SHT31;58775;46.992;9.518;2023-06-14T04:53:22;12.73;79.88
71117;SHT31;58775;46.992;9.518;2023-06-14T04:55:26;12.79;79.75
71117;SHT31;58775;46.992;9.518;2023-06-14T04:57:28;12.84;79.91
71117;SHT31;58775;46.992;9.518;2023-06-14T04:59:33;12.94;79.22
71117;SHT31;58775;46.992;9.518;2023-06-14T05:01:36;12.98;78.54
71117;SHT31;58775;46.992;9.518;2023-06-14T05:03:39;12.57;79.07
71117;SHT31;58775;46.992;9.518;2023-06-14T05:05:41;12.61;78.53
71117;SHT31;58775;46.992;9.518;2023-06-14T05:07:43;12.76;78.37
71117;SHT31;58775;46.992;9.518;2023-06-14T05:09:46;13.12;77.42
71117;SHT31;58775;46.992;9.518;2023-06-14T05:11:49;15.09;72.18
71117;SHT31;58775;46.992;9.518;2023-06-14T05:13:52;15.35;70.60
71117;SHT31;58775;46.992;9.518;2023-06-14T05:15:54;15.00;71.45
71117;SHT31;58775;46.992;9.518;2023-06-14T05:17:57;14.86;69.80
71117;SHT31;58775;46.992;9.518;2023-06-14T05:19:59;15.18;70.29
71117;SHT31;58775;46.992;9.518;2023-06-14T05:22:01;15.51;69.41
71117;SHT31;58775;46.992;9.518;2023-06-14T05:24:04;15.78;68.02
71117;SHT31;58775;46.992;9.518;2023-06-14T05:26:06;15.90;67.68
71117;SHT31;58775;46.992;9.518;2023-06-14T05:28:08;16.32;67.25
71117;SHT31;58775;46.992;9.518;2023-06-14T05:30:11;16.81;65.79
71117;SHT31;58775;46.992;9.518;2023-06-14T05:32:14;17.28;64.64
71117;SHT31;58775;46.992;9.518;2023-06-14T05:34:17;17.40;63.43
71117;SHT31;58775;46.992;9.518;2023-06-14T05:36:21;17.16;63.41
71117;SHT31;58775;46.992;9.518;2023-06-14T05:38:23;16.97;64.62
71117;SHT31;58775;46.992;9.518;2023-06-14T05:40:25;17.55;63.48
71117;SHT31;58775;46.992;9.518;2023-06-14T05:42:27;17.95;62.38
71117;SHT31;58775;46.992;9.518;2023-06-14T05:44:29;18.40;61.15
71117;SHT31;58775;46.992;9.518;2023-06-14T05:46:30;18.87;60.29
71117;SHT31;58775;46.992;9.518;2023-06-14T05:48:32;19.05;59.82
71117;SHT31;58775;46.992;9.518;2023-06-14T05:50:34;19.07;59.11
71117;SHT31;58775;46.992;9.518;2023-06-14T05:52:36;19.48;58.01
71117;SHT31;58775;46.992;9.518;2023-06-14T05:54:38;19.61;56.93
71117;SHT31;58775;46.992;9.518;2023-06-14T05:56:40;19.70;57.17
71117;SHT31;58775;46.992;9.518;2023-06-14T05:58:42;19.87;56.43
71117;SHT31;58775;46.992;9.518;2023-06-14T06:00:44;19.83;56.53
71117;SHT31;58775;46.992;9.518;2023-06-14T06:02:47;20.48;55.63
71117;SHT31;58775;46.992;9.518;2023-06-14T06:04:50;20.78;54.37
71117;SHT31;58775;46.992;9.518;2023-06-14T06:06:52;20.75;54.53
71117;SHT31;58775;46.992;9.518;2023-06-14T06:08:54;20.79;55.62
71117;SHT31;58775;46.992;9.518;2023-06-14T06:10:57;20.92;54.88
71117;SHT31;58775;46.992;9.518;2023-06-14T06:12:59;21.36;52.98
71117;SHT31;58775;46.992;9.518;2023-06-14T06:15:01;21.77;51.24
71117;SHT31;58775;46.992;9.518;2023-06-14T06:17:03;21.90;51.10
71117;SHT31;58775;46.992;9.518;2023-06-14T06:19:05;22.25;50.35
71117;SHT31;58775;46.992;9.518;2023-06-14T06:21:07;22.52;49.40
71117;SHT31;58775;46.992;9.518;2023-06-14T06:23:09;22.85;49.73
71117;SHT31;58775;46.992;9.518;2023-06-14T06:25:12;23.06;49.57
71117;SHT31;58775;46.992;9.518;2023-06-14T06:27:16;23.20;48.54
71117;SHT31;58775;46.992;9.518;2023-06-14T06:29:20;23.23;49.77
71117;SHT31;58775;46.992;9.518;2023-06-14T06:31:21;23.60;47.70
71117;SHT31;58775;46.992;9.518;2023-06-14T06:33:23;22.51;50.70
71117;SHT31;58775;46.992;9.518;2023-06-14T06:35:25;22.28;51.61
71117;SHT31;58775;46.992;9.518;2023-06-14T06:37:27;23.54;48.54
71117;SHT31;58775;46.992;9.518;2023-06-14T06:39:28;23.95;48.15
71117;SHT31;58775;46.992;9.518;2023-06-14T06:41:30;23.41;49.77
71117;SHT31;58775;46.992;9.518;2023-06-14T06:43:32;23.88;47.69
71117;SHT31;58775;46.992;9.518;2023-06-14T06:45:36;23.79;47.47
71117;SHT31;58775;46.992;9.518;2023-06-14T06:47:38;24.53;46.96
71117;SHT31;58775;46.992;9.518;2023-06-14T06:49:40;25.54;44.83
71117;SHT31;58775;46.992;9.518;2023-06-14T06:51:43;25.78;43.56
71117;SHT31;58775;46.992;9.518;2023-06-14T06:54:00;26.10;43.22
71117;SHT31;58775;46.992;9.518;2023-06-14T06:56:01;26.22;42.72
71117;SHT31;58775;46.992;9.518;2023-06-14T06:58:04;26.57;42.17
71117;SHT31;58775;46.992;9.518;2023-06-14T07:00:12;26.95;40.39
71117;SHT31;58775;46.992;9.518;2023-06-14T07:02:15;27.25;40.42
71117;SHT31;58775;46.992;9.518;2023-06-14T07:04:21;27.18;40.37
71117;SHT31;58775;46.992;9.518;2023-06-14T07:06:24;26.50;39.86
71117;SHT31;58775;46.992;9.518;2023-06-14T07:08:29;26.70;39.74
71117;SHT31;58775;46.992;9.518;2023-06-14T07:10:31;25.69;42.88
71117;SHT31;58775;46.992;9.518;2023-06-14T07:12:33;26.83;38.83
71117;SHT31;58775;46.992;9.518;2023-06-14T07:14:40;26.77;38.70
71117;SHT31;58775;46.992;9.518;2023-06-14T07:16:43;26.74;38.83
71117;SHT31;58775;46.992;9.518;2023-06-14T07:18:45;25.72;39.97
71117;SHT31;58775;46.992;9.518;2023-06-14T07:20:48;27.12;38.35
71117;SHT31;58775;46.992;9.518;2023-06-14T07:22:49;26.90;38.73
71117;SHT31;58775;46.992;9.518;2023-06-14T07:24:52;27.28;38.62
71117;SHT31;58775;46.992;9.518;2023-06-14T07:26:54;27.28;39.21
71117;SHT31;58775;46.992;9.518;2023-06-14T07:28:57;27.70;39.09
71117;SHT31;58775;46.992;9.518;2023-06-14T07:31:01;27.92;37.44
71117;SHT31;58775;46.992;9.518;2023-06-14T07:33:05;26.36;38.47
71117;SHT31;58775;46.992;9.518;2023-06-14T07:35:08;27.85;37.60
71117;SHT31;58775;46.992;9.518;2023-06-14T07:37:10;28.41;37.48
71117;SHT31;58775;46.992;9.518;2023-06-14T07:39:12;27.29;38.18
71117;SHT31;58775;46.992;9.518;2023-06-14T07:41:16;27.69;37.44
71117;SHT31;58775;46.992;9.518;2023-06-14T07:43:18;28.04;37.52
71117;SHT31;58775;46.992;9.518;2023-06-14T07:45:21;28.30;37.80
71117;SHT31;58775;46.992;9.518;2023-06-14T07:47:24;27.42;40.48
71117;SHT31;58775;46.992;9.518;2023-06-14T07:49:27;28.47;37.11
71117;SHT31;58775;46.992;9.518;2023-06-14T07:51:30;28.52;36.97
71117;SHT31;58775;46.992;9.518;2023-06-14T07:53:32;28.30;36.99
71117;SHT31;58775;46.992;9.518;2023-06-14T07:55:34;28.88;37.02
71117;SHT31;58775;46.992;9.518;2023-06-14T07:57:38;29.40;35.97
71117;SHT31;58775;46.992;9.518;2023-06-14T07:59:40;29.05;35.36
71117;SHT31;58775;46.992;9.518;2023-06-14T08:01:43;29.30;35.57
71117;SHT31;58775;46.992;9.518;2023-06-14T08:03:49;29.77;35.42
71117;SHT31;58775;46.992;9.518;2023-06-14T08:05:51;29.92;34.57
71117;SHT31;58775;46.992;9.518;2023-06-14T08:07:53;30.14;34.74
71117;SHT31;58775;46.992;9.518;2023-06-14T08:09:56;30.25;34.41
71117;SHT31;58775;46.992;9.518;2023-06-14T08:11:58;28.92;36.32
71117;SHT31;58775;46.992;9.518;2023-06-14T08:14:01;29.56;35.91
71117;SHT31;58775;46.992;9.518;2023-06-14T08:16:03;30.12;35.24
71117;SHT31;58775;46.992;9.518;2023-06-14T08:18:06;29.61;36.80
71117;SHT31;58775;46.992;9.518;2023-06-14T08:20:08;29.78;36.25
71117;SHT31;58775;46.992;9.518;2023-06-14T08:22:10;29.77;36.53
71117;SHT31;58775;46.992;9.518;2023-06-14T08:24:13;30.05;35.89
71117;SHT31;58775;46.992;9.518;2023-06-14T08:26:15;30.20;35.99
71117;SHT31;58775;46.992;9.518;2023-06-14T08:28:17;29.46;37.19
71117;SHT31;58775;46.992;9.518;2023-06-14T08:30:19;29.73;36.47
71117;SHT31;58775;46.992;9.518;2023-06-14T08:32:21;30.43;35.60
71117;SHT31;58775;46.992;9.518;2023-06-14T08:34:23;28.85;38.53
71117;SHT31;58775;46.992;9.518;2023-06-14T08:36:25;29.69;36.46
71117;SHT31;58775;46.992;9.518;2023-06-14T08:38:28;29.42;35.98
71117;SHT31;58775;46.992;9.518;2023-06-14T08:40:30;29.94;35.95
71117;SHT31;58775;46.992;9.518;2023-06-14T08:42:33;29.97;36.04
71117;SHT31;58775;46.992;9.518;2023-06-14T08:44:35;30.62;35.77
71117;SHT31;58775;46.992;9.518;2023-06-14T08:46:37;30.63;35.47
71117;SHT31;58775;46.992;9.518;2023-06-14T08:48:41;30.97;35.88
71117;SHT31;58775;46.992;9.518;2023-06-14T08:50:45;29.85;35.78
71117;SHT31;58775;46.992;9.518;2023-06-14T08:52:53;28.88;38.15
71117;SHT31;58775;46.992;9.518;2023-06-14T08:54:55;28.81;39.02
71117;SHT31;58775;46.992;9.518;2023-06-14T08:56:59;29.13;37.88
71117;SHT31;58775;46.992;9.518;2023-06-14T08:59:02;29.29;37.05
71117;SHT31;58775;46.992;9.518;2023-06-14T09:01:08;29.90;36.79
71117;SHT31;58775;46.992;9.518;2023-06-14T09:03:10;30.46;36.03
71117;SHT31;58775;46.992;9.518;2023-06-14T09:05:14;27.90;37.57
71117;SHT31;58775;46.992;9.518;2023-06-14T09:07:19;28.11;39.07
71117;SHT31;58775;46.992;9.518;2023-06-14T09:09:22;28.74;38.32
71117;SHT31;58775;46.992;9.518;2023-06-14T09:11:26;28.55;37.65
71117;SHT31;58775;46.992;9.518;2023-06-14T09:13:29;29.33;36.83
71117;SHT31;58775;46.992;9.518;2023-06-14T09:15:31;29.92;37.66
71117;SHT31;58775;46.992;9.518;2023-06-14T09:17:34;29.53;37.06
71117;SHT31;58775;46.992;9.518;2023-06-14T09:19:36;29.16;36.97
71117;SHT31;58775;46.992;9.518;2023-06-14T09:21:38;29.63;36.30
71117;SHT31;58775;46.992;9.518;2023-06-14T09:23:47;30.01;36.31
71117;SHT31;58775;46.992;9.518;2023-06-14T09:25:50;29.84;35.61
71117;SHT31;58775;46.992;9.518;2023-06-14T09:27:53;29.91;35.20
71117;SHT31;58775;46.992;9.518;2023-06-14T09:29:55;30.17;34.79
71117;SHT31;58775;46.992;9.518;2023-06-14T09:31:57;29.90;35.27
71117;SHT31;58775;46.992;9.518;2023-06-14T09:34:02;30.12;34.99
71117;SHT31;58775;46.992;9.518;2023-06-14T09:36:11;29.94;34.83
71117;SHT31;58775;46.992;9.518;2023-06-14T09:38:15;30.08;34.73
71117;SHT31;58775;46.992;9.518;2023-06-14T09:40:21;30.12;34.48
71117;SHT31;58775;46.992;9.518;2023-06-14T09:42:24;28.94;35.11
71117;SHT31;58775;46.992;9.518;2023-06-14T09:44:27;28.69;34.68
71117;SHT31;58775;46.992;9.518;2023-06-14T09:46:30;30.00;34.62
71117;SHT31;58775;46.992;9.518;2023-06-14T09:48:32;28.85;35.82
71117;SHT31;58775;46.992;9.518;2023-06-14T09:50:35;28.94;36.91
71117;SHT31;58775;46.992;9.518;2023-06-14T09:52:37;29.20;38.23
71117;SHT31;58775;46.992;9.518;2023-06-14T09:54:44;30.05;36.78
71117;SHT31;58775;46.992;9.518;2023-06-14T09:56:51;30.11;34.94
71117;SHT31;58775;46.992;9.518;2023-06-14T09:58:55;30.66;33.67
71117;SHT31;58775;46.992;9.518;2023-06-14T10:00:59;30.32;34.25
71117;SHT31;58775;46.992;9.518;2023-06-14T10:03:13;28.83;36.03
71117;SHT31;58775;46.992;9.518;2023-06-14T10:05:17;29.40;37.56
71117;SHT31;58775;46.992;9.518;2023-06-14T10:07:22;29.87;37.59
71117;SHT31;58775;46.992;9.518;2023-06-14T10:09:24;30.65;35.23
71117;SHT31;58775;46.992;9.518;2023-06-14T10:11:28;29.98;36.79
71117;SHT31;58775;46.992;9.518;2023-06-14T10:13:31;29.81;34.47
71117;SHT31;58775;46.992;9.518;2023-06-14T10:15:57;29.80;34.89
71117;SHT31;58775;46.992;9.518;2023-06-14T10:18:10;29.59;35.12
71117;SHT31;58775;46.992;9.518;2023-06-14T10:20:35;31.04;33.20
71117;SHT31;58775;46.992;9.518;2023-06-14T10:22:49;32.16;33.35
71117;SHT31;58775;46.992;9.518;2023-06-14T10:24:53;32.06;31.42
71117;SHT31;58775;46.992;9.518;2023-06-14T10:26:58;30.14;33.26
71117;SHT31;58775;46.992;9.518;2023-06-14T10:29:08;30.07;34.73
71117;SHT31;58775;46.992;9.518;2023-06-14T10:31:12;29.50;34.45
71117;SHT31;58775;46.992;9.518;2023-06-14T10:33:15;29.47;35.36
71117;SHT31;58775;46.992;9.518;2023-06-14T10:35:18;29.70;34.12
71117;SHT31;58775;46.992;9.518;2023-06-14T10:37:20;29.43;34.81
71117;SHT31;58775;46.992;9.518;2023-06-14T10:39:24;29.40;34.49
71117;SHT31;58775;46.992;9.518;2023-06-14T10:41:28;27.43;36.05
71117;SHT31;58775;46.992;9.518;2023-06-14T10:43:30;28.45;36.32
71117;SHT31;58775;46.992;9.518;2023-06-14T10:45:33;28.81;34.37
71117;SHT31;58775;46.992;9.518;2023-06-14T10:47:37;28.21;35.71
71117;SHT31;58775;46.992;9.518;2023-06-14T10:49:44;28.83;36.12
71117;SHT31;58775;46.992;9.518;2023-06-14T10:51:53;28.68;35.21
71117;SHT31;58775;46.992;9.518;2023-06-14T10:53:59;28.34;37.11
71117;SHT31;58775;46.992;9.518;2023-06-14T10:56:08;28.78;37.79
71117;SHT31;58775;46.992;9.518;2023-06-14T10:58:13;28.82;34.58
71117;SHT31;58775;46.992;9.518;2023-06-14T11:00:17;28.72;37.27
71117;SHT31;58775;46.992;9.518;2023-06-14T11:04:51;29.18;34.15
71117;SHT31;58775;46.992;9.518;2023-06-14T11:10:03;29.85;35.75
71117;SHT31;58775;46.992;9.518;2023-06-14T11:12:10;29.46;34.07
71117;SHT31;58775;46.992;9.518;2023-06-14T11:14:14;28.89;33.65
71117;SHT31;58775;46.992;9.518;2023-06-14T11:16:17;29.39;34.78
71117;SHT31;58775;46.992;9.518;2023-06-14T11:18:22;29.98;34.55
71117;SHT31;58775;46.992;9.518;2023-06-14T11:20:32;29.91;34.58
71117;SHT31;58775;46.992;9.518;2023-06-14T11:22:42;29.59;33.88
71117;SHT31;58775;46.992;9.518;2023-06-14T11:24:48;29.70;33.59
71117;SHT31;58775;46.992;9.518;2023-06-14T11:26:50;29.94;32.26
71117;SHT31;58775;46.992;9.518;2023-06-14T11:28:55;29.96;32.73
71117;SHT31;58775;46.992;9.518;2023-06-14T11:31:01;29.76;31.53
71117;SHT31;58775;46.992;9.518;2023-06-14T11:33:09;30.69;32.12
71117;SHT31;58775;46.992;9.518;2023-06-14T11:35:11;30.20;32.97
71117;SHT31;58775;46.992;9.518;2023-06-14T11:37:14;29.00;33.73
71117;SHT31;58775;46.992;9.518;2023-06-14T11:39:17;28.58;33.62
71117;SHT31;58775;46.992;9.518;2023-06-14T11:41:24;28.34;34.34
71117;SHT31;58775;46.992;9.518;2023-06-14T11:43:27;29.02;34.00
71117;SHT31;58775;46.992;9.518;2023-06-14T11:45:31;28.98;33.55
71117;SHT31;58775;46.992;9.518;2023-06-14T11:47:38;30.33;35.14
71117;SHT31;58775;46.992;9.518;2023-06-14T11:49:41;30.84;32.93
71117;SHT31;58775;46.992;9.518;2023-06-14T11:51:44;31.34;32.83
71117;SHT31;58775;46.992;9.518;2023-06-14T11:53:47;31.50;31.90
71117;SHT31;58775;46.992;9.518;2023-06-14T11:55:49;32.08;32.40
71117;SHT31;58775;46.992;9.518;2023-06-14T11:57:54;31.74;33.27
71117;SHT31;58775;46.992;9.518;2023-06-14T11:59:58;32.21;31.56
71117;SHT31;58775;46.992;9.518;2023-06-14T12:02:03;32.53;32.15
71117;SHT31;58775;46.992;9.518;2023-06-14T12:04:06;32.15;31.97
71117;SHT31;58775;46.992;9.518;2023-06-14T12:06:08;31.55;31.33
71117;SHT31;58775;46.992;9.518;2023-06-14T12:08:12;31.17;33.11
71117;SHT31;58775;46.992;9.518;2023-06-14T12:10:19;30.93;33.68
71117;SHT31;58775;46.992;9.518;2023-06-14T12:12:22;31.29;32.00
71117;SHT31;58775;46.992;9.518;2023-06-14T12:14:30;30.04;35.63
71117;SHT31;58775;46.992;9.518;2023-06-14T12:16:35;30.52;33.72
71117;SHT31;58775;46.992;9.518;2023-06-14T12:18:39;30.79;31.34
71117;SHT31;58775;46.992;9.518;2023-06-14T12:20:42;31.33;32.15
71117;SHT31;58775;46.992;9.518;2023-06-14T12:22:54;31.50;31.81
71117;SHT31;58775;46.992;9.518;2023-06-14T12:24:58;31.64;32.29
71117;SHT31;58775;46.992;9.518;2023-06-14T12:27:00;30.90;33.29
71117;SHT31;58775;46.992;9.518;2023-06-14T12:29:05;31.17;33.68
71117;SHT31;58775;46.992;9.518;2023-06-14T12:31:09;30.65;31.77
71117;SHT31;58775;46.992;9.518;2023-06-14T12:33:11;31.70;31.93
71117;SHT31;58775;46.992;9.518;2023-06-14T12:35:15;31.61;31.74
71117;SHT31;58775;46.992;9.518;2023-06-14T12:37:18;31.89;31.18
71117;SHT31;58775;46.992;9.518;2023-06-14T12:39:21;31.38;31.52
71117;SHT31;58775;46.992;9.518;2023-06-14T12:41:24;31.73;32.15
71117;SHT31;58775;46.992;9.518;2023-06-14T12:43:26;31.44;31.58
71117;SHT31;58775;46.992;9.518;2023-06-14T12:45:27;31.02;32.70
71117;SHT31;58775;46.992;9.518;2023-06-14T12:47:30;31.00;31.67
71117;SHT31;58775;46.992;9.518;2023-06-14T12:49:33;31.14;31.99
71117;SHT31;58775;46.992;9.518;2023-06-14T12:51:35;30.46;34.05
71117;SHT31;58775;46.992;9.518;2023-06-14T12:53:39;30.38;31.91
71117;SHT31;58775;46.992;9.518;2023-06-14T12:55:42;30.32;33.38
71117;SHT31;58775;46.992;9.518;2023-06-14T12:57:44;30.20;32.93
71117;SHT31;58775;46.992;9.518;2023-06-14T12:59:46;30.90;32.16
71117;SHT31;58775;46.992;9.518;2023-06-14T13:01:49;31.09;34.26
71117;SHT31;58775;46.992;9.518;2023-06-14T13:03:51;30.61;32.03
71117;SHT31;58775;46.992;9.518;2023-06-14T13:05:55;30.90;32.31
71117;SHT31;58775;46.992;9.518;2023-06-14T13:07:57;30.58;33.23